Time;durP1;ratioP1;P1;durP2;ratioP2;P2;SDS_P1;SDS_P2;PMS_P1;PMS_P2;Temp;Humidity;BMP_temperature;BMP_pressure;BME280_temperature;BME280_humidity;BME280_pressure;Samples;Min_cycle;Max_cycle;Signal;HPM_P1;HPM_P2
2022/08/22 00:02:29;;;;;;;22.20;20.80;;;;;;;;;;5032368;28;20452;-79
2022/08/22 00:05:04;;;;;;;21.90;20.70;;;;;;;;;;5032312;28;20409;-79
2022/08/22 00:07:40;;;;;;;22.50;21.20;;;;;;;;;;5032608;28;20498;-78
2022/08/22 00:10:11;;;;;;;21.73;20.47;;;;;;;;;;5032424;28;20747;-79
2022/08/22 00:12:44;;;;;;;22.13;20.73;;;;;;;;;;5032172;28;20417;-78
2022/08/22 00:15:13;;;;;;;21.80;20.50;;;;;;;;;;5032093;28;20451;-78
2022/08/22 00:17:45;;;;;;;21.90;20.60;;;;;;;;;;5032512;28;20813;-78
2022/08/22 00:20:22;;;;;;;21.53;20.30;;;;;;;;;;5032412;28;20419;-79
2022/08/22 00:22:51;;;;;;;22.40;20.83;;;;;;;;;;5032175;28;20413;-79
2022/08/22 00:25:31;;;;;;;22.23;20.83;;;;;;;;;;5032299;28;20435;-79
2022/08/22 00:28:00;;;;;;;22.77;21.17;;;;;;;;;;5032071;28;20419;-79
2022/08/22 00:30:29;;;;;;;21.97;20.70;;;;;;;;;;5031924;28;20484;-78
2022/08/22 00:32:59;;;;;;;22.90;21.50;;;;;;;;;;5032143;28;20419;-78
2022/08/22 00:35:35;;;;;;;22.80;21.50;;;;;;;;;;5032303;28;20452;-79
2022/08/22 00:38:04;;;;;;;21.93;20.73;;;;;;;;;;5032306;28;20903;-78
2022/08/22 00:40:36;;;;;;;22.60;21.17;;;;;;;;;;5033568;28;20446;-78
2022/08/22 00:43:16;;;;;;;21.97;20.67;;;;;;;;;;5035755;28;20451;-79
2022/08/22 00:46:08;;;;;;;22.13;20.83;;;;;;;;;;5035910;28;20447;-79
2022/08/22 00:48:53;;;;;;;21.93;20.63;;;;;;;;;;5035650;28;20441;-79
2022/08/22 00:51:39;;;;;;;22.40;20.70;;;;;;;;;;5035463;28;20433;-78
2022/08/22 00:54:13;;;;;;;22.90;21.07;;;;;;;;;;5035035;28;20431;-78
2022/08/22 00:56:52;;;;;;;23.17;21.37;;;;;;;;;;5035514;28;20417;-78
2022/08/22 00:59:31;;;;;;;22.63;21.00;;;;;;;;;;5035573;28;20810;-79
2022/08/22 01:02:04;;;;;;;21.63;20.33;;;;;;;;;;5035563;28;20457;-78
2022/08/22 01:04:35;;;;;;;22.13;20.53;;;;;;;;;;5035631;28;20529;-79
2022/08/22 01:07:10;;;;;;;22.27;20.97;;;;;;;;;;5035563;28;20446;-79
2022/08/22 01:09:44;;;;;;;22.03;20.67;;;;;;;;;;5035370;28;20599;-79
2022/08/22 01:12:29;;;;;;;22.13;20.70;;;;;;;;;;5035399;28;20451;-79
2022/08/22 01:14:59;;;;;;;22.17;20.67;;;;;;;;;;5035029;28;20493;-78
2022/08/22 01:17:43;;;;;;;22.37;21.07;;;;;;;;;;5035341;28;20415;-79
2022/08/22 01:20:40;;;;;;;21.53;20.33;;;;;;;;;;5034872;28;20441;-78
2022/08/22 01:23:25;;;;;;;21.80;20.53;;;;;;;;;;4954629;29;20447;-79
2022/08/22 01:26:19;;;;;;;22.23;20.43;;;;;;;;;;4954714;29;20445;-79
2022/08/22 01:29:05;;;;;;;21.20;20.00;;;;;;;;;;4954434;29;20412;-79
2022/08/22 01:31:51;;;;;;;20.83;19.50;;;;;;;;;;4954483;29;20440;-78
2022/08/22 01:34:33;;;;;;;21.53;20.27;;;;;;;;;;4954374;29;20421;-78
2022/08/22 01:37:15;;;;;;;21.70;20.33;;;;;;;;;;4954304;29;20457;-78
2022/08/22 01:40:05;;;;;;;21.77;20.27;;;;;;;;;;4946260;29;20439;-79
2022/08/22 01:42:41;;;;;;;20.70;19.50;;;;;;;;;;4954434;29;20884;-78
2022/08/22 01:45:26;;;;;;;21.93;20.30;;;;;;;;;;4954196;29;20454;-78
2022/08/22 01:47:56;;;;;;;21.30;20.10;;;;;;;;;;4953714;29;20860;-79
2022/08/22 01:50:25;;;;;;;22.20;20.67;;;;;;;;;;4954046;28;20499;-79
2022/08/22 01:52:59;;;;;;;22.80;21.30;;;;;;;;;;4953321;28;20438;-78
2022/08/22 01:55:32;;;;;;;21.93;20.50;;;;;;;;;;4953999;29;20551;-78
2022/08/22 01:58:02;;;;;;;20.70;19.60;;;;;;;;;;5017345;28;20887;-78
2022/08/22 02:00:32;;;;;;;21.50;20.20;;;;;;;;;;5017209;28;20424;-78
2022/08/22 02:03:06;;;;;;;22.10;20.73;;;;;;;;;;5034257;28;20449;-79
2022/08/22 02:05:37;;;;;;;21.50;19.90;;;;;;;;;;5034235;28;20790;-79
2022/08/22 02:08:07;;;;;;;21.40;20.00;;;;;;;;;;5034014;28;20408;-79
2022/08/22 02:10:51;;;;;;;21.20;19.60;;;;;;;;;;5034193;28;20553;-79
2022/08/22 02:13:23;;;;;;;21.40;19.97;;;;;;;;;;5034314;28;20494;-78
2022/08/22 02:16:02;;;;;;;21.87;20.27;;;;;;;;;;5033816;28;20531;-78
2022/08/22 02:18:33;;;;;;;21.20;19.97;;;;;;;;;;5034186;28;20445;-79
2022/08/22 02:21:15;;;;;;;23.43;21.90;;;;;;;;;;5016162;28;20430;-79
2022/08/22 02:23:46;;;;;;;21.60;20.10;;;;;;;;;;5034053;28;20839;-78
2022/08/22 02:26:16;;;;;;;21.40;20.10;;;;;;;;;;5033814;28;20449;-78
2022/08/22 02:28:48;;;;;;;21.73;20.33;;;;;;;;;;5033668;28;20502;-79
2022/08/22 02:31:17;;;;;;;22.37;20.67;;;;;;;;;;5033831;28;20470;-79
2022/08/22 02:33:49;;;;;;;20.60;19.50;;;;;;;;;;5033546;28;20445;-79
2022/08/22 02:36:19;;;;;;;21.70;20.17;;;;;;;;;;5033590;28;20407;-78
2022/08/22 02:38:50;;;;;;;21.20;19.90;;;;;;;;;;5033379;28;20771;-80
2022/08/22 02:41:22;;;;;;;20.90;19.23;;;;;;;;;;5033660;28;20421;-79
2022/08/22 02:43:53;;;;;;;20.47;19.17;;;;;;;;;;5033381;28;20441;-78
2022/08/22 02:46:24;;;;;;;20.10;19.00;;;;;;;;;;5015654;28;20910;-78
2022/08/22 02:48:56;;;;;;;20.87;19.70;;;;;;;;;;5033309;28;20914;-78
2022/08/22 02:51:28;;;;;;;21.20;19.83;;;;;;;;;;5033528;28;20454;-78
2022/08/22 02:53:58;;;;;;;21.90;20.20;;;;;;;;;;5033150;28;20913;-78
2022/08/22 02:56:33;;;;;;;21.73;20.10;;;;;;;;;;5033236;28;20438;-79
2022/08/22 02:59:14;;;;;;;21.93;20.50;;;;;;;;;;5032926;28;20551;-78
2022/08/22 03:01:42;;;;;;;22.93;21.23;;;;;;;;;;5033495;28;20439;-79
2022/08/22 03:04:18;;;;;;;20.93;19.53;;;;;;;;;;5032819;28;20448;-78
2022/08/22 03:06:46;;;;;;;22.60;21.10;;;;;;;;;;5033360;28;20435;-79
2022/08/22 03:09:25;;;;;;;22.07;20.70;;;;;;;;;;5033179;28;20514;-79
2022/08/22 03:12:02;;;;;;;22.40;20.90;;;;;;;;;;5033241;28;20485;-78
2022/08/22 03:14:33;;;;;;;21.70;20.43;;;;;;;;;;5032916;28;20846;-79
2022/08/22 03:17:04;;;;;;;21.80;20.50;;;;;;;;;;5032833;28;20423;-79
2022/08/22 03:19:44;;;;;;;21.60;20.30;;;;;;;;;;5032794;28;20449;-79
2022/08/22 03:22:14;;;;;;;22.23;20.57;;;;;;;;;;5033170;28;20805;-79
2022/08/22 03:24:48;;;;;;;21.80;20.50;;;;;;;;;;5032619;28;20444;-79
2022/08/22 03:27:19;;;;;;;22.17;20.90;;;;;;;;;;5032957;28;20467;-79
2022/08/22 03:29:50;;;;;;;21.70;20.30;;;;;;;;;;5032957;28;20459;-79
2022/08/22 03:32:19;;;;;;;22.43;21.03;;;;;;;;;;5032890;28;20799;-79
2022/08/22 03:34:57;;;;;;;21.63;20.07;;;;;;;;;;5032995;28;20422;-79
2022/08/22 03:37:27;;;;;;;23.27;21.47;;;;;;;;;;5032869;28;20436;-79
2022/08/22 03:39:58;;;;;;;22.50;20.90;;;;;;;;;;5032591;28;20465;-79
2022/08/22 03:42:40;;;;;;;22.40;20.90;;;;;;;;;;5032545;28;20456;-78
2022/08/22 03:45:23;;;;;;;22.20;20.70;;;;;;;;;;5014870;28;20444;-79
2022/08/22 03:48:07;;;;;;;22.63;21.20;;;;;;;;;;5032883;28;20440;-79
2022/08/22 03:51:01;;;;;;;22.30;20.53;;;;;;;;;;5032755;28;20519;-79
2022/08/22 03:54:01;;;;;;;21.10;19.83;;;;;;;;;;5032652;28;20935;-78
2022/08/22 03:56:39;;;;;;;22.30;20.57;;;;;;;;;;4955287;28;20463;-79
2022/08/22 03:59:15;;;;;;;22.37;20.70;;;;;;;;;;4971380;28;20445;-78
2022/08/22 04:01:53;;;;;;;21.73;20.17;;;;;;;;;;4971405;28;20790;-78
2022/08/22 04:04:35;;;;;;;21.00;19.60;;;;;;;;;;4971536;28;20413;-78
2022/08/22 04:07:18;;;;;;;20.77;19.43;;;;;;;;;;4971396;28;20418;-78
2022/08/22 04:09:58;;;;;;;21.43;20.03;;;;;;;;;;4971261;28;20502;-79
2022/08/22 04:12:43;;;;;;;21.37;20.07;;;;;;;;;;4971444;28;20413;-79
2022/08/22 04:15:32;;;;;;;20.47;19.17;;;;;;;;;;4971848;28;20491;-79
2022/08/22 04:18:19;;;;;;;21.23;19.83;;;;;;;;;;4975138;28;20436;-78
2022/08/22 04:21:04;;;;;;;21.63;20.27;;;;;;;;;;4975055;28;20448;-79
2022/08/22 04:23:40;;;;;;;21.03;19.40;;;;;;;;;;4969159;28;20767;-79
2022/08/22 04:26:11;;;;;;;22.30;20.13;;;;;;;;;;4974873;28;20430;-78
2022/08/22 04:28:40;;;;;;;21.17;19.80;;;;;;;;;;5036237;28;20429;-78
2022/08/22 04:31:10;;;;;;;21.63;20.33;;;;;;;;;;5035074;28;20487;-79
2022/08/22 04:33:40;;;;;;;22.27;20.63;;;;;;;;;;5035829;28;20411;-78
2022/08/22 04:36:12;;;;;;;22.67;20.70;;;;;;;;;;5035492;28;20515;-77
2022/08/22 04:38:42;;;;;;;22.80;21.30;;;;;;;;;;5017816;28;20425;-79
2022/08/22 04:41:14;;;;;;;22.83;21.33;;;;;;;;;;5035646;28;20437;-78
2022/08/22 04:43:45;;;;;;;22.13;20.63;;;;;;;;;;5035724;28;20448;-79
2022/08/22 04:46:16;;;;;;;21.20;19.90;;;;;;;;;;5035228;28;20423;-79
2022/08/22 04:48:45;;;;;;;22.13;20.63;;;;;;;;;;5035369;28;20444;-80
2022/08/22 04:51:17;;;;;;;21.47;20.27;;;;;;;;;;5035136;28;20496;-80
2022/08/22 04:53:52;;;;;;;22.87;21.07;;;;;;;;;;5034865;28;20416;-79
2022/08/22 04:56:25;;;;;;;23.33;21.60;;;;;;;;;;5034833;28;20466;-79
2022/08/22 04:58:55;;;;;;;22.17;20.40;;;;;;;;;;5034782;28;20507;-80
2022/08/22 05:01:24;;;;;;;21.33;20.00;;;;;;;;;;5035000;28;20419;-78
2022/08/22 05:03:56;;;;;;;21.33;20.13;;;;;;;;;;5017302;28;20432;-79
2022/08/22 05:06:25;;;;;;;22.27;20.67;;;;;;;;;;5035299;28;20449;-80
2022/08/22 05:08:53;;;;;;;21.90;20.60;;;;;;;;;;5035000;28;20414;-81
2022/08/22 05:11:23;;;;;;;22.27;20.63;;;;;;;;;;5034481;28;20493;-79
2022/08/22 05:13:54;;;;;;;22.70;21.07;;;;;;;;;;5035064;28;20442;-80
2022/08/22 05:16:24;;;;;;;21.80;20.60;;;;;;;;;;5034497;28;20491;-81
2022/08/22 05:18:53;;;;;;;22.93;21.10;;;;;;;;;;5035042;28;20454;-81
2022/08/22 05:21:22;;;;;;;22.63;21.20;;;;;;;;;;5035920;28;20427;-85
2022/08/22 05:23:51;;;;;;;21.83;20.53;;;;;;;;;;5036005;28;20452;-85
2022/08/22 05:26:20;;;;;;;22.30;21.00;;;;;;;;;;5035433;28;20450;-85
2022/08/22 05:28:50;;;;;;;22.37;20.77;;;;;;;;;;5035444;28;20425;-84
2022/08/22 05:31:19;;;;;;;22.27;20.63;;;;;;;;;;5035494;28;20841;-90
2022/08/22 05:33:47;;;;;;;21.77;20.47;;;;;;;;;;5036596;28;20415;-85
2022/08/22 05:36:17;;;;;;;21.63;20.33;;;;;;;;;;5035461;28;20517;-84
2022/08/22 05:38:47;;;;;;;22.80;21.27;;;;;;;;;;5036037;28;20421;-88
2022/08/22 05:41:18;;;;;;;22.20;20.80;;;;;;;;;;5017452;28;20502;-83
2022/08/22 05:43:48;;;;;;;22.90;21.30;;;;;;;;;;5035183;28;20421;-83
2022/08/22 05:46:20;;;;;;;23.13;21.63;;;;;;;;;;5034880;28;20405;-83
2022/08/22 05:48:53;;;;;;;21.80;20.40;;;;;;;;;;5034995;28;20420;-83
2022/08/22 05:51:24;;;;;;;22.80;20.90;;;;;;;;;;5016984;28;20459;-83
2022/08/22 05:53:53;;;;;;;22.70;20.90;;;;;;;;;;5035116;28;20478;-83
2022/08/22 05:56:25;;;;;;;22.53;20.90;;;;;;;;;;5034662;28;20412;-83
2022/08/22 05:58:54;;;;;;;22.97;21.30;;;;;;;;;;5034278;28;20489;-83
2022/08/22 06:01:26;;;;;;;22.73;21.43;;;;;;;;;;5034838;28;20439;-83
2022/08/22 06:04:05;;;;;;;24.40;22.60;;;;;;;;;;5034736;28;20503;-83
2022/08/22 06:06:35;;;;;;;22.07;20.67;;;;;;;;;;5034357;28;20419;-81
2022/08/22 06:09:03;;;;;;;22.13;20.67;;;;;;;;;;5034320;28;20906;-83
2022/08/22 06:11:34;;;;;;;21.83;20.37;;;;;;;;;;5034169;28;20476;-83
2022/08/22 06:14:08;;;;;;;22.90;21.50;;;;;;;;;;5034525;28;20417;-83
2022/08/22 06:16:40;;;;;;;23.93;21.93;;;;;;;;;;5016408;28;20452;-83
2022/08/22 06:19:08;;;;;;;22.57;21.17;;;;;;;;;;5034121;28;20440;-83
2022/08/22 06:21:40;;;;;;;23.73;22.23;;;;;;;;;;5034381;28;20423;-82
2022/08/22 06:24:10;;;;;;;22.60;21.00;;;;;;;;;;5033890;28;20803;-81
2022/08/22 06:26:39;;;;;;;23.40;21.70;;;;;;;;;;5016059;28;20950;-83
2022/08/22 06:29:07;;;;;;;24.00;22.20;;;;;;;;;;5034052;28;20453;-83
2022/08/22 06:31:37;;;;;;;22.40;20.90;;;;;;;;;;5033902;28;20556;-82
2022/08/22 06:34:07;;;;;;;23.10;21.60;;;;;;;;;;5033907;28;20455;-83
2022/08/22 06:36:35;;;;;;;22.97;21.47;;;;;;;;;;5034108;28;20416;-83
2022/08/22 06:39:10;;;;;;;23.60;21.70;;;;;;;;;;5033362;28;20441;-82
2022/08/22 06:41:41;;;;;;;23.47;21.87;;;;;;;;;;5016370;28;20870;-84
2022/08/22 06:44:09;;;;;;;22.20;20.70;;;;;;;;;;5034026;28;20478;-82
2022/08/22 06:46:38;;;;;;;24.17;22.50;;;;;;;;;;5033980;28;20426;-83
2022/08/22 06:49:08;;;;;;;22.10;20.43;;;;;;;;;;5033505;28;20405;-83
2022/08/22 06:51:37;;;;;;;24.50;22.37;;;;;;;;;;5033443;28;20950;-83
2022/08/22 06:54:06;;;;;;;23.43;21.50;;;;;;;;;;5033858;28;20438;-83
2022/08/22 06:56:36;;;;;;;21.50;20.20;;;;;;;;;;5033635;28;20440;-83
2022/08/22 06:59:06;;;;;;;21.97;20.37;;;;;;;;;;5033560;28;20508;-81
2022/08/22 07:01:35;;;;;;;22.90;21.20;;;;;;;;;;5033253;28;20446;-83
2022/08/22 07:04:05;;;;;;;23.10;21.43;;;;;;;;;;5033697;28;20444;-83
2022/08/22 07:06:35;;;;;;;22.50;20.70;;;;;;;;;;5033516;28;20424;-82
2022/08/22 07:09:04;;;;;;;21.40;19.90;;;;;;;;;;5015531;28;20540;-82
2022/08/22 07:11:33;;;;;;;22.43;20.90;;;;;;;;;;5033063;28;20452;-83
2022/08/22 07:14:02;;;;;;;22.03;20.70;;;;;;;;;;5033506;28;20445;-82
2022/08/22 07:16:31;;;;;;;21.53;20.23;;;;;;;;;;5033023;28;20487;-83
2022/08/22 07:18:59;;;;;;;21.77;20.30;;;;;;;;;;5033196;28;20445;-83
2022/08/22 07:21:27;;;;;;;21.83;20.47;;;;;;;;;;5033046;28;20431;-82
2022/08/22 07:23:57;;;;;;;22.07;20.63;;;;;;;;;;5033356;28;20411;-83
2022/08/22 07:26:28;;;;;;;22.10;20.50;;;;;;;;;;5032665;28;20831;-82
2022/08/22 07:28:58;;;;;;;22.23;20.80;;;;;;;;;;5015218;28;20458;-82
2022/08/22 07:31:32;;;;;;;23.17;21.57;;;;;;;;;;5032739;28;20953;-82
2022/08/22 07:34:04;;;;;;;22.77;21.27;;;;;;;;;;5033139;28;20440;-83
2022/08/22 07:36:35;;;;;;;21.40;19.90;;;;;;;;;;5032791;28;20416;-83
2022/08/22 07:39:20;;;;;;;21.57;20.17;;;;;;;;;;5032935;28;20424;-83
2022/08/22 07:41:56;;;;;;;21.77;20.33;;;;;;;;;;5033025;28;20425;-82
2022/08/22 07:44:25;;;;;;;22.47;21.03;;;;;;;;;;5032763;28;20813;-83
2022/08/22 07:46:57;;;;;;;22.47;21.20;;;;;;;;;;5032801;28;20421;-83
2022/08/22 07:49:26;;;;;;;21.50;19.93;;;;;;;;;;5032671;28;20417;-82
2022/08/22 07:51:54;;;;;;;21.93;20.30;;;;;;;;;;5036620;28;20465;-81
2022/08/22 07:54:24;;;;;;;22.00;20.50;;;;;;;;;;5037092;28;20453;-83
2022/08/22 07:56:56;;;;;;;21.23;19.77;;;;;;;;;;5036813;28;20454;-82
2022/08/22 07:59:26;;;;;;;21.20;19.80;;;;;;;;;;5036617;28;20489;-82
2022/08/22 08:01:54;;;;;;;22.33;20.93;;;;;;;;;;5018870;28;20469;-82
2022/08/22 08:04:23;;;;;;;21.20;19.87;;;;;;;;;;5036404;28;20450;-83
2022/08/22 08:06:52;;;;;;;21.97;20.17;;;;;;;;;;5036853;28;20475;-83
2022/08/22 08:09:20;;;;;;;21.33;19.93;;;;;;;;;;5036914;28;20459;-83
2022/08/22 08:11:49;;;;;;;21.00;19.50;;;;;;;;;;5036658;28;20846;-83
2022/08/22 08:14:19;;;;;;;19.43;18.43;;;;;;;;;;5036444;28;20788;-82
2022/08/22 08:16:51;;;;;;;20.90;19.50;;;;;;;;;;5036578;28;20444;-82
2022/08/22 08:19:19;;;;;;;21.40;20.20;;;;;;;;;;5036611;28;20405;-82
2022/08/22 08:21:49;;;;;;;22.77;21.07;;;;;;;;;;5036284;28;20452;-82
2022/08/22 08:24:20;;;;;;;21.53;20.13;;;;;;;;;;5018434;28;20421;-83
2022/08/22 08:29:35;;;;;;;22.97;21.23;;;;;;;;;;5035269;28;20421;-82
2022/08/22 08:32:02;;;;;;;22.13;20.50;;;;;;;;;;5036351;28;20820;-83
2022/08/22 08:34:31;;;;;;;21.20;19.93;;;;;;;;;;5036023;28;20789;-83
2022/08/22 08:37:01;;;;;;;22.47;21.00;;;;;;;;;;5036296;28;20482;-82
2022/08/22 08:39:33;;;;;;;23.93;21.90;;;;;;;;;;5035867;28;20903;-83
2022/08/22 08:42:15;;;;;;;22.60;21.20;;;;;;;;;;5036248;28;20450;-83
2022/08/22 08:44:58;;;;;;;23.30;21.90;;;;;;;;;;5035872;28;20926;-83
2022/08/22 08:47:42;;;;;;;23.10;21.77;;;;;;;;;;5035754;28;20446;-83
2022/08/22 08:50:17;;;;;;;23.30;21.90;;;;;;;;;;5036092;28;20405;-82
2022/08/22 08:52:51;;;;;;;23.97;22.60;;;;;;;;;;5035840;28;20461;-82
2022/08/22 08:55:29;;;;;;;24.63;23.30;;;;;;;;;;5035909;28;20428;-83
2022/08/22 08:58:10;;;;;;;23.67;22.20;;;;;;;;;;5035447;28;20474;-83
2022/08/22 09:00:56;;;;;;;24.33;22.83;;;;;;;;;;5034967;28;20460;-82
2022/08/22 09:03:36;;;;;;;22.83;21.37;;;;;;;;;;5035521;28;20430;-82
2022/08/22 09:06:19;;;;;;;23.53;22.23;;;;;;;;;;5035465;28;20911;-82
2022/08/22 09:09:13;;;;;;;22.63;21.43;;;;;;;;;;5035265;28;20960;-82
2022/08/22 09:12:01;;;;;;;23.33;21.83;;;;;;;;;;4974361;28;20489;-83
2022/08/22 09:14:44;;;;;;;23.47;22.07;;;;;;;;;;4958021;28;20991;-81
2022/08/22 09:17:29;;;;;;;23.40;21.90;;;;;;;;;;4974278;28;20411;-82
2022/08/22 09:20:08;;;;;;;23.47;22.17;;;;;;;;;;4973883;28;20453;-83
2022/08/22 09:22:53;;;;;;;24.00;22.70;;;;;;;;;;4974254;28;20463;-82
2022/08/22 09:25:24;;;;;;;23.50;22.00;;;;;;;;;;4973991;28;20915;-83
2022/08/22 09:27:58;;;;;;;23.47;22.03;;;;;;;;;;4974044;28;20839;-82
2022/08/22 09:30:27;;;;;;;23.07;21.77;;;;;;;;;;4957865;28;20490;-82
2022/08/22 09:32:57;;;;;;;22.87;21.47;;;;;;;;;;4973938;28;20516;-82
2022/08/22 09:35:39;;;;;;;22.67;21.23;;;;;;;;;;4973892;28;20469;-83
2022/08/22 09:38:22;;;;;;;23.40;21.87;;;;;;;;;;4973857;28;20409;-82
2022/08/22 09:40:54;;;;;;;23.47;21.80;;;;;;;;;;4973834;28;20465;-82
2022/08/22 09:43:24;;;;;;;23.60;22.20;;;;;;;;;;4973789;28;20955;-82
2022/08/22 09:45:57;;;;;;;24.43;22.60;;;;;;;;;;4973893;28;20441;-82
2022/08/22 09:48:36;;;;;;;22.73;21.43;;;;;;;;;;5027986;28;20433;-81
2022/08/22 09:51:13;;;;;;;23.60;22.20;;;;;;;;;;5034515;28;20811;-82
2022/08/22 09:53:58;;;;;;;22.87;21.47;;;;;;;;;;5034810;28;20497;-82
2022/08/22 09:56:35;;;;;;;24.30;22.90;;;;;;;;;;5034049;28;20425;-82
2022/08/22 09:59:05;;;;;;;23.40;21.80;;;;;;;;;;5034340;28;20939;-83
2022/08/22 10:01:38;;;;;;;23.40;22.00;;;;;;;;;;5016677;28;20457;-81
2022/08/22 10:04:26;;;;;;;24.07;22.57;;;;;;;;;;5034712;28;20421;-82
2022/08/22 10:06:59;;;;;;;24.73;22.80;;;;;;;;;;5034471;28;20443;-81
2022/08/22 10:09:28;;;;;;;23.93;22.50;;;;;;;;;;5034107;28;20487;-82
2022/08/22 10:12:01;;;;;;;22.67;21.27;;;;;;;;;;5016304;28;20829;-82
2022/08/22 10:14:32;;;;;;;23.00;21.60;;;;;;;;;;5033480;28;21222;-83
2022/08/22 10:17:03;;;;;;;24.70;22.80;;;;;;;;;;5034491;28;20417;-83
2022/08/22 10:19:33;;;;;;;23.97;22.47;;;;;;;;;;5034356;28;20467;-83
2022/08/22 10:22:25;;;;;;;24.23;22.87;;;;;;;;;;5034062;28;20452;-82
2022/08/22 10:24:58;;;;;;;23.87;22.57;;;;;;;;;;5019438;28;20483;-83
2022/08/22 10:27:35;;;;;;;23.43;22.03;;;;;;;;;;5034021;28;20429;-83
2022/08/22 10:30:07;;;;;;;24.90;23.30;;;;;;;;;;5034180;28;20418;-83
2022/08/22 10:32:37;;;;;;;22.43;21.13;;;;;;;;;;5033835;28;20955;-82
2022/08/22 10:35:12;;;;;;;22.53;21.23;;;;;;;;;;5034009;28;20444;-82
2022/08/22 10:37:41;;;;;;;22.83;21.43;;;;;;;;;;5033666;28;20886;-82
2022/08/22 10:40:11;;;;;;;23.00;21.43;;;;;;;;;;5033655;28;20411;-82
2022/08/22 10:42:42;;;;;;;21.80;20.50;;;;;;;;;;5033779;28;20444;-82
2022/08/22 10:45:28;;;;;;;23.00;21.60;;;;;;;;;;5033923;28;20418;-83
2022/08/22 10:48:10;;;;;;;23.53;22.13;;;;;;;;;;5033367;28;20445;-83
2022/08/22 10:50:40;;;;;;;25.00;23.03;;;;;;;;;;5021110;28;20437;-83
2022/08/22 10:56:00;;;;;;;23.17;21.63;;;;;;;;;;5033413;28;20505;-82
2022/08/22 10:58:29;;;;;;;23.07;21.60;;;;;;;;;;5015418;28;20475;-82
2022/08/22 11:00:59;;;;;;;23.63;22.13;;;;;;;;;;5033531;28;20442;-82
2022/08/22 11:03:29;;;;;;;22.70;21.40;;;;;;;;;;5033235;28;20426;-83
2022/08/22 11:05:59;;;;;;;23.07;21.60;;;;;;;;;;5033366;28;20445;-82
2022/08/22 11:08:44;;;;;;;22.43;21.13;;;;;;;;;;5033397;28;20418;-82
2022/08/22 11:11:28;;;;;;;22.70;21.30;;;;;;;;;;5033434;28;20425;-82
2022/08/22 11:14:08;;;;;;;24.33;22.93;;;;;;;;;;5032913;28;20495;-82
2022/08/22 11:16:42;;;;;;;24.30;23.00;;;;;;;;;;5033403;28;20410;-82
2022/08/22 11:19:27;;;;;;;25.03;23.43;;;;;;;;;;5033154;28;20417;-82
2022/08/22 11:22:00;;;;;;;24.40;23.00;;;;;;;;;;5032911;28;20421;-82
2022/08/22 11:24:42;;;;;;;24.77;23.27;;;;;;;;;;5015053;28;20434;-82
2022/08/22 11:27:14;;;;;;;24.33;22.83;;;;;;;;;;5032909;28;20417;-82
2022/08/22 11:29:45;;;;;;;23.97;22.57;;;;;;;;;;5032783;28;20930;-82
2022/08/22 11:32:15;;;;;;;22.80;21.40;;;;;;;;;;5032801;28;20448;-82
2022/08/22 11:34:50;;;;;;;24.47;22.67;;;;;;;;;;5032855;28;20460;-83
2022/08/22 11:37:28;;;;;;;23.53;22.07;;;;;;;;;;5032957;28;20448;-82
2022/08/22 11:40:02;;;;;;;23.70;22.10;;;;;;;;;;5032948;28;20440;-82
2022/08/22 11:42:32;;;;;;;21.97;20.70;;;;;;;;;;5032647;28;20398;-83
2022/08/22 11:45:02;;;;;;;23.10;21.73;;;;;;;;;;5032955;28;20423;-82
2022/08/22 11:47:31;;;;;;;22.67;21.33;;;;;;;;;;5032832;28;20468;-82
2022/08/22 11:50:01;;;;;;;23.47;21.77;;;;;;;;;;5032841;28;20431;-82
2022/08/22 11:52:49;;;;;;;23.40;21.93;;;;;;;;;;5032601;28;20466;-82
2022/08/22 11:55:20;;;;;;;23.37;22.07;;;;;;;;;;5032413;28;20430;-82
2022/08/22 11:57:49;;;;;;;24.00;22.37;;;;;;;;;;5032305;28;20471;-82
2022/08/22 12:00:22;;;;;;;24.50;22.93;;;;;;;;;;5032760;28;20498;-82
2022/08/22 12:03:05;;;;;;;23.50;22.03;;;;;;;;;;5032654;28;20778;-83
2022/08/22 12:05:34;;;;;;;23.40;21.90;;;;;;;;;;5032432;28;20418;-83
2022/08/22 12:08:08;;;;;;;23.77;22.17;;;;;;;;;;5014564;28;20487;-82
2022/08/22 12:10:37;;;;;;;24.17;22.67;;;;;;;;;;5032510;28;20410;-82
2022/08/22 12:13:07;;;;;;;23.17;21.77;;;;;;;;;;5032374;28;20476;-83
2022/08/22 12:15:42;;;;;;;24.20;22.60;;;;;;;;;;5032198;28;21084;-81
2022/08/22 12:18:27;;;;;;;23.23;21.80;;;;;;;;;;5032592;28;20426;-82
2022/08/22 12:21:12;;;;;;;24.20;22.57;;;;;;;;;;5032693;28;20441;-82
2022/08/22 12:23:52;;;;;;;24.77;23.17;;;;;;;;;;5032796;28;20443;-82
2022/08/22 12:26:24;;;;;;;24.30;22.70;;;;;;;;;;5032148;28;20915;-82
2022/08/22 12:28:56;;;;;;;24.67;23.10;;;;;;;;;;5032394;28;20463;-82
2022/08/22 12:31:31;;;;;;;23.93;22.30;;;;;;;;;;5032538;28;20905;-82
2022/08/22 12:34:03;;;;;;;24.20;22.33;;;;;;;;;;5032146;28;20546;-82
2022/08/22 12:36:51;;;;;;;24.13;22.63;;;;;;;;;;5033524;28;20423;-81
2022/08/22 12:39:36;;;;;;;22.83;21.50;;;;;;;;;;5031130;28;20950;-82
2022/08/22 12:42:19;;;;;;;24.47;22.90;;;;;;;;;;5005950;28;20457;-82
2022/08/22 12:44:57;;;;;;;23.07;21.70;;;;;;;;;;5036165;28;20488;-83
2022/08/22 12:47:31;;;;;;;23.57;22.07;;;;;;;;;;5035920;28;20439;-82
2022/08/22 12:50:07;;;;;;;24.60;23.00;;;;;;;;;;5036016;28;20452;-82
2022/08/22 12:52:45;;;;;;;23.60;22.20;;;;;;;;;;5035776;28;20479;-82
2022/08/22 12:55:19;;;;;;;23.70;22.20;;;;;;;;;;5035607;28;20453;-83
2022/08/22 12:57:49;;;;;;;23.67;22.27;;;;;;;;;;5035692;28;20470;-82
2022/08/22 13:00:23;;;;;;;24.60;23.00;;;;;;;;;;5035455;28;20463;-82
2022/08/22 13:02:54;;;;;;;24.07;22.50;;;;;;;;;;5035761;28;20481;-82
2022/08/22 13:05:24;;;;;;;23.87;22.40;;;;;;;;;;5035706;28;20423;-81
2022/08/22 13:07:53;;;;;;;24.30;22.80;;;;;;;;;;5018208;28;20434;-82
2022/08/22 13:10:35;;;;;;;24.70;23.07;;;;;;;;;;5017116;28;20433;-82
2022/08/22 13:13:03;;;;;;;23.70;22.30;;;;;;;;;;5035576;28;20491;-82
2022/08/22 13:15:32;;;;;;;24.00;22.60;;;;;;;;;;5035333;28;20470;-82
2022/08/22 13:18:02;;;;;;;24.93;23.43;;;;;;;;;;5035114;28;20797;-82
2022/08/22 13:20:32;;;;;;;23.07;21.60;;;;;;;;;;5035423;28;20407;-83
2022/08/22 13:23:00;;;;;;;23.50;22.10;;;;;;;;;;5035103;28;20474;-82
2022/08/22 13:25:28;;;;;;;25.00;23.50;;;;;;;;;;5034955;28;20449;-82
2022/08/22 13:27:57;;;;;;;23.57;22.07;;;;;;;;;;5035111;28;20463;-82
2022/08/22 13:30:28;;;;;;;23.20;21.70;;;;;;;;;;5034885;28;20416;-81
2022/08/22 13:33:02;;;;;;;24.10;22.60;;;;;;;;;;5017350;28;20479;-83
2022/08/22 13:35:35;;;;;;;24.30;22.80;;;;;;;;;;5017041;28;20454;-82
2022/08/22 13:38:05;;;;;;;23.63;22.23;;;;;;;;;;5034743;28;20441;-82
2022/08/22 13:40:34;;;;;;;24.13;22.63;;;;;;;;;;5034620;28;20947;-82
2022/08/22 13:43:04;;;;;;;24.60;23.00;;;;;;;;;;5017306;28;20448;-82
2022/08/22 13:45:32;;;;;;;23.27;21.77;;;;;;;;;;5034715;28;20417;-82
2022/08/22 13:48:01;;;;;;;23.00;21.63;;;;;;;;;;5033257;28;20448;-82
2022/08/22 13:50:30;;;;;;;23.47;21.97;;;;;;;;;;5034832;28;20441;-82
2022/08/22 13:53:02;;;;;;;24.13;22.63;;;;;;;;;;5034430;28;20449;-82
2022/08/22 13:55:36;;;;;;;24.73;23.20;;;;;;;;;;5034625;28;20765;-82
2022/08/22 13:58:05;;;;;;;24.37;22.87;;;;;;;;;;5034566;28;20863;-82
2022/08/22 14:00:59;;;;;;;24.40;22.80;;;;;;;;;;5034548;28;20867;-82
2022/08/22 14:03:32;;;;;;;24.90;23.30;;;;;;;;;;5034669;28;20414;-82
2022/08/22 14:06:01;;;;;;;24.90;23.17;;;;;;;;;;5034226;28;20445;-81
2022/08/22 14:08:32;;;;;;;23.53;22.10;;;;;;;;;;5034569;28;20509;-81
2022/08/22 14:11:01;;;;;;;24.20;22.70;;;;;;;;;;5034408;28;20424;-82
2022/08/22 14:13:36;;;;;;;24.40;22.80;;;;;;;;;;5034355;28;20489;-82
2022/08/22 14:16:05;;;;;;;24.10;22.70;;;;;;;;;;5033891;28;20489;-82
2022/08/22 14:18:36;;;;;;;23.83;22.33;;;;;;;;;;5034380;28;20469;-82
2022/08/22 14:21:17;;;;;;;24.30;22.93;;;;;;;;;;5034303;28;20452;-82
2022/08/22 14:23:47;;;;;;;24.30;22.70;;;;;;;;;;5034247;28;20420;-82
2022/08/22 14:26:23;;;;;;;24.43;22.93;;;;;;;;;;5033965;28;20425;-82
2022/08/22 14:28:51;;;;;;;24.30;22.90;;;;;;;;;;5033776;28;20427;-82
2022/08/22 14:31:23;;;;;;;23.70;22.30;;;;;;;;;;5033987;28;20412;-82
2022/08/22 14:33:52;;;;;;;24.10;22.70;;;;;;;;;;5033971;28;20489;-82
2022/08/22 14:36:21;;;;;;;25.20;23.80;;;;;;;;;;5033555;28;20422;-82
2022/08/22 14:38:52;;;;;;;24.20;22.80;;;;;;;;;;5033560;28;20417;-82
2022/08/22 14:41:25;;;;;;;26.10;24.50;;;;;;;;;;5033529;28;20442;-82
2022/08/22 14:43:55;;;;;;;24.47;22.97;;;;;;;;;;5033595;28;20449;-82
2022/08/22 14:46:25;;;;;;;23.03;21.73;;;;;;;;;;5033554;28;20889;-83
2022/08/22 14:49:06;;;;;;;24.93;23.27;;;;;;;;;;5033352;28;20447;-82
2022/08/22 14:51:33;;;;;;;23.63;22.20;;;;;;;;;;5033683;28;20435;-82
2022/08/22 14:54:11;;;;;;;23.90;22.37;;;;;;;;;;5033549;28;20485;-82
2022/08/22 14:56:38;;;;;;;22.80;21.33;;;;;;;;;;5033472;28;20418;-82
2022/08/22 14:59:07;;;;;;;25.07;23.47;;;;;;;;;;5032708;28;20445;-82
2022/08/22 15:01:51;;;;;;;23.80;22.40;;;;;;;;;;5015507;28;20863;-82